createdAt,value
2018-07-07T00:00:14.335Z,61.60
2018-07-07T00:01:14.516Z,62.10
2018-07-07T00:02:14.697Z,61.79
2018-07-07T00:03:14.876Z,62.17
2018-07-07T00:04:15.068Z,61.79
2018-07-07T00:05:15.243Z,62.36
2018-07-07T00:06:15.423Z,62.26
2018-07-07T00:07:15.605Z,62.46
2018-07-07T00:08:15.785Z,63.13
2018-07-07T00:09:15.966Z,64.15
2018-07-07T00:10:16.143Z,64.34
2018-07-07T00:11:16.324Z,64.25
2018-07-07T00:12:16.504Z,64.34
2018-07-07T00:14:16.872Z,65.84
2018-07-07T00:15:17.048Z,65.20
2018-07-07T00:16:17.235Z,64.53
2018-07-07T00:17:17.407Z,64.72
2018-07-07T00:18:17.588Z,64.72
2018-07-07T00:19:17.768Z,64.34
2018-07-07T00:20:17.953Z,64.34
2018-07-07T00:21:18.128Z,64.53
2018-07-07T00:22:18.304Z,63.86
2018-07-07T00:23:18.483Z,64.05
2018-07-07T00:24:18.692Z,63.99
2018-07-07T00:25:18.847Z,64.05
2018-07-07T00:26:19.024Z,63.67
2018-07-07T00:27:19.327Z,63.67
2018-07-07T00:28:19.392Z,63.57
2018-07-07T00:29:19.571Z,63.76
2018-07-07T00:30:19.747Z,63.19
2018-07-07T00:31:19.921Z,63.48
2018-07-07T00:32:20.102Z,64.05
2018-07-07T00:33:20.281Z,63.10
2018-07-07T00:34:20.466Z,63.57
2018-07-07T00:35:20.644Z,63.57
2018-07-07T00:36:20.822Z,63.39
2018-07-07T00:37:20.996Z,64.05
2018-07-07T00:38:21.180Z,63.48
2018-07-07T00:39:21.364Z,64.34
2018-07-07T00:40:21.541Z,64.88
2018-07-07T00:41:21.725Z,65.65
2018-07-07T00:42:21.908Z,65.55
2018-07-07T00:43:22.088Z,65.55
2018-07-07T00:44:22.268Z,65.84
2018-07-07T00:45:22.447Z,65.26
2018-07-07T00:46:22.622Z,65.36
2018-07-07T00:47:22.799Z,65.36
2018-07-07T00:48:22.979Z,66.41
2018-07-07T00:49:23.160Z,66.51
2018-07-07T00:50:23.356Z,66.32
2018-07-07T00:51:23.523Z,66.47
2018-07-07T00:52:23.704Z,66.38
2018-07-07T00:53:23.882Z,66.00
2018-07-07T00:54:24.111Z,66.38
2018-07-07T00:55:24.250Z,66.28
2018-07-07T00:56:24.419Z,66.38
2018-07-07T00:57:24.597Z,66.41
2018-07-07T00:58:24.807Z,66.41
2018-07-07T00:59:24.972Z,65.90
2018-07-07T01:00:25.143Z,66.13
2018-07-07T01:01:25.324Z,65.14
2018-07-07T01:02:25.506Z,65.17
2018-07-07T01:03:25.683Z,65.23
2018-07-07T01:04:25.868Z,65.17
2018-07-07T01:05:26.064Z,65.17
2018-07-07T01:06:26.237Z,64.98
2018-07-07T01:07:26.416Z,64.40
2018-07-07T01:08:26.592Z,64.40
2018-07-07T01:09:26.800Z,64.79
2018-07-07T01:10:26.957Z,64.85
2018-07-07T01:11:27.133Z,65.23
2018-07-07T01:12:27.313Z,65.26
2018-07-07T01:13:27.500Z,64.85
2018-07-07T01:14:27.728Z,64.88
2018-07-07T01:15:27.857Z,64.95
2018-07-07T01:16:28.031Z,64.50
2018-07-07T01:17:28.214Z,64.40
2018-07-07T01:18:28.433Z,64.88
2018-07-07T01:19:28.572Z,65.17
2018-07-07T01:20:28.753Z,65.94
2018-07-07T01:21:28.934Z,66.00
2018-07-07T01:22:29.119Z,66.03
2018-07-07T01:23:29.293Z,66.00
2018-07-07T01:24:29.472Z,66.00
2018-07-07T01:25:29.687Z,66.09
2018-07-07T01:26:29.824Z,65.81
2018-07-07T01:27:30.007Z,66.38
2018-07-07T01:28:30.186Z,66.47
2018-07-07T01:29:30.363Z,67.05
2018-07-07T01:30:30.545Z,67.24
2018-07-07T01:31:30.728Z,67.91
2018-07-07T01:32:30.907Z,67.72
2018-07-07T01:33:31.085Z,67.72
2018-07-07T01:34:31.266Z,67.43
2018-07-07T01:35:31.447Z,67.49
2018-07-07T01:36:31.628Z,67.49
2018-07-07T01:37:31.807Z,68.07
2018-07-07T01:38:31.984Z,68.55
2018-07-07T01:39:32.171Z,68.55
2018-07-07T01:40:32.348Z,68.07
2018-07-07T01:41:32.529Z,68.45
2018-07-07T01:42:32.714Z,68.16
2018-07-07T01:43:32.889Z,68.84
2018-07-07T01:44:33.068Z,68.26
2018-07-07T01:45:33.261Z,68.07
2018-07-07T01:46:33.435Z,68.64
2018-07-07T01:47:33.617Z,68.07
2018-07-07T01:48:33.847Z,68.16
2018-07-07T01:49:33.972Z,68.16
2018-07-07T01:50:34.158Z,68.74
2018-07-07T01:51:34.368Z,68.74
2018-07-07T01:52:34.511Z,68.35
2018-07-07T01:53:34.696Z,68.45
2018-07-07T01:54:34.868Z,68.07
2018-07-07T01:55:35.041Z,68.84
2018-07-07T01:56:35.215Z,68.51
2018-07-07T01:57:35.393Z,69.18
2018-07-07T01:58:35.577Z,69.18
2018-07-07T01:59:35.753Z,69.02
2018-07-07T02:00:35.950Z,68.84
2018-07-07T02:01:36.121Z,68.84
2018-07-07T02:02:36.302Z,68.45
2018-07-07T02:03:36.481Z,68.32
2018-07-07T02:04:36.659Z,68.99
2018-07-07T02:05:36.842Z,68.99
2018-07-07T02:06:37.023Z,69.27
2018-07-07T02:07:37.201Z,69.47
2018-07-07T02:08:37.380Z,69.56
2018-07-07T02:09:37.560Z,68.80
2018-07-07T02:10:37.745Z,68.99
2018-07-07T02:11:37.923Z,69.47
2018-07-07T02:12:38.101Z,69.37
2018-07-07T02:13:38.280Z,69.85
2018-07-07T02:14:38.459Z,69.76
2018-07-07T02:15:38.670Z,69.85
2018-07-07T02:16:38.816Z,69.37
2018-07-07T02:17:38.995Z,68.90
2018-07-07T02:18:39.172Z,69.27
2018-07-07T02:19:39.348Z,69.37
2018-07-07T02:20:39.525Z,68.99
2018-07-07T02:21:39.713Z,69.09
2018-07-07T02:22:39.892Z,69.37
2018-07-07T02:23:40.075Z,69.47
2018-07-07T02:24:40.250Z,68.99
2018-07-07T02:25:40.441Z,69.27
2018-07-07T02:26:40.611Z,70.04
2018-07-07T02:27:40.786Z,69.56
2018-07-07T02:28:40.965Z,70.23
2018-07-07T02:29:41.155Z,69.66
2018-07-07T02:30:41.325Z,69.66
2018-07-07T02:31:41.515Z,69.56
2018-07-07T02:32:41.679Z,70.04
2018-07-07T02:33:41.851Z,70.04
2018-07-07T02:34:42.031Z,69.56
2018-07-07T02:35:42.209Z,69.95
2018-07-07T02:36:42.399Z,70.52
2018-07-07T02:37:42.572Z,69.85
2018-07-07T02:38:42.751Z,69.66
2018-07-07T02:39:42.931Z,69.56
2018-07-07T02:40:43.109Z,69.95
2018-07-07T02:41:43.288Z,70.04
2018-07-07T02:42:43.461Z,70.04
2018-07-07T02:43:43.636Z,70.42
2018-07-07T02:44:43.815Z,70.04
2018-07-07T02:45:43.993Z,70.14
2018-07-07T02:47:44.350Z,70.77
2018-07-07T02:48:44.521Z,71.63
2018-07-07T02:49:44.692Z,71.63
2018-07-07T02:50:44.888Z,71.06
2018-07-07T02:51:45.057Z,70.87
2018-07-07T02:52:45.238Z,71.72
2018-07-07T02:53:45.436Z,71.06
2018-07-07T02:54:46.144Z,71.25
2018-07-07T02:55:45.791Z,71.25
2018-07-07T02:56:46.642Z,71.67
2018-07-07T02:57:46.133Z,70.90
2018-07-07T02:58:46.312Z,71.00
2018-07-07T02:59:46.488Z,70.52
2018-07-07T03:00:46.662Z,71.00
2018-07-07T03:01:46.846Z,70.81
2018-07-07T03:02:47.019Z,71.09
2018-07-07T03:03:47.281Z,70.61
2018-07-07T03:04:47.375Z,70.81
2018-07-07T03:05:47.557Z,71.19
2018-07-07T03:06:47.731Z,71.00
2018-07-07T03:07:47.909Z,71.00
2018-07-07T03:08:48.091Z,70.90
2018-07-07T03:09:48.260Z,70.77
2018-07-07T03:10:48.441Z,71.34
2018-07-07T03:11:48.622Z,71.72
2018-07-07T03:12:48.794Z,71.34
2018-07-07T03:13:48.972Z,71.53
2018-07-07T03:14:49.161Z,71.63
2018-07-07T03:15:49.321Z,71.25
2018-07-07T03:16:49.506Z,71.25
2018-07-07T03:17:49.689Z,71.53
2018-07-07T03:18:49.867Z,71.25
2018-07-07T03:19:50.040Z,71.25
2018-07-07T03:20:50.222Z,71.63
2018-07-07T03:21:50.389Z,71.53
2018-07-07T03:22:50.574Z,71.44
2018-07-07T03:23:50.749Z,71.63
2018-07-07T03:24:50.912Z,71.63
2018-07-07T03:25:51.073Z,71.72
2018-07-07T03:26:51.258Z,71.44
2018-07-07T03:27:51.428Z,72.11
2018-07-07T03:28:51.611Z,72.20
2018-07-07T03:29:51.806Z,72.30
2018-07-07T03:30:51.973Z,72.11
2018-07-07T03:31:52.152Z,71.92
2018-07-07T03:32:52.329Z,72.30
2018-07-07T03:33:52.509Z,72.39
2018-07-07T03:34:52.735Z,72.11
2018-07-07T03:35:52.882Z,72.30
2018-07-07T03:36:53.090Z,72.39
2018-07-07T03:37:53.244Z,72.39
2018-07-07T03:38:53.426Z,72.20
2018-07-07T03:39:53.601Z,72.39
2018-07-07T03:40:53.784Z,72.20
2018-07-07T03:41:53.960Z,72.58
2018-07-07T03:42:54.147Z,72.20
2018-07-07T03:43:54.353Z,72.20
2018-07-07T03:44:54.492Z,72.78
2018-07-07T03:45:54.665Z,72.68
2018-07-07T03:46:54.849Z,72.39
2018-07-07T03:47:55.033Z,72.78
2018-07-07T03:48:55.212Z,72.68
2018-07-07T03:49:55.390Z,72.49
2018-07-07T03:50:55.823Z,72.01
2018-07-07T03:51:55.750Z,71.92
2018-07-07T03:52:55.939Z,71.92
2018-07-07T03:53:56.091Z,71.92
2018-07-07T03:54:56.277Z,72.30
2018-07-07T03:55:56.457Z,72.39
2018-07-07T03:56:56.636Z,72.01
2018-07-07T03:57:56.823Z,72.20
2018-07-07T03:58:57.035Z,72.97
2018-07-07T03:59:57.180Z,73.35
2018-07-07T04:00:57.363Z,72.78
2018-07-07T04:01:57.541Z,72.58
2018-07-07T04:02:57.716Z,72.30
2018-07-07T04:03:57.895Z,72.20
2018-07-07T04:04:58.073Z,72.58
2018-07-07T04:05:58.255Z,72.14
2018-07-07T04:06:58.433Z,71.67
2018-07-07T04:07:58.616Z,71.19
2018-07-07T04:08:58.810Z,71.09
2018-07-07T04:09:58.970Z,71.00
2018-07-07T04:10:59.147Z,70.81
2018-07-07T04:11:59.331Z,70.90
2018-07-07T04:12:59.510Z,70.81
2018-07-07T04:13:59.684Z,70.65
2018-07-07T04:14:59.866Z,70.56
2018-07-07T04:16:00.046Z,69.79
2018-07-07T04:17:00.231Z,69.76
2018-07-07T04:18:00.421Z,70.04
2018-07-07T04:19:00.588Z,70.52
2018-07-07T04:20:00.778Z,70.90
2018-07-07T04:21:00.947Z,71.67
2018-07-07T04:22:01.119Z,71.09
2018-07-07T04:23:01.304Z,71.00
2018-07-07T04:24:01.477Z,71.00
2018-07-07T04:25:01.665Z,71.19
2018-07-07T04:26:01.844Z,71.67
2018-07-07T04:27:02.025Z,71.47
2018-07-07T04:29:02.371Z,71.38
2018-07-07T04:30:02.545Z,71.19
2018-07-07T04:31:02.730Z,71.47
2018-07-07T04:32:02.908Z,71.00
2018-07-07T04:33:03.091Z,70.81
2018-07-07T04:34:03.270Z,70.71
2018-07-07T04:35:03.449Z,70.56
2018-07-07T04:36:03.634Z,71.00
2018-07-07T04:37:03.817Z,70.56
2018-07-07T04:38:03.998Z,70.75
2018-07-07T04:39:04.164Z,70.75
2018-07-07T04:40:04.345Z,70.65
2018-07-07T04:41:04.525Z,71.03
2018-07-07T04:42:04.703Z,71.03
2018-07-07T04:43:04.885Z,71.13
2018-07-07T04:44:05.069Z,70.27
2018-07-07T04:45:05.249Z,70.27
2018-07-07T04:46:05.445Z,69.60
2018-07-07T04:47:05.598Z,69.79
2018-07-07T04:48:05.780Z,69.89
2018-07-07T04:49:05.959Z,69.70
2018-07-07T04:50:06.137Z,69.50
2018-07-07T04:51:06.316Z,69.89
2018-07-07T04:52:06.500Z,70.07
2018-07-07T04:53:06.693Z,69.79
2018-07-07T04:54:06.859Z,70.81
2018-07-07T04:55:07.040Z,70.36
2018-07-07T04:56:07.224Z,69.98
2018-07-07T04:57:07.702Z,68.74
2018-07-07T04:58:07.577Z,68.49
2018-07-07T04:59:07.765Z,68.39
2018-07-07T05:00:07.939Z,68.01
2018-07-07T05:01:08.118Z,68.49
2018-07-07T05:02:08.598Z,68.39
2018-07-07T05:03:08.504Z,68.68
2018-07-07T05:04:08.667Z,68.58
2018-07-07T05:05:08.854Z,69.06
2018-07-07T05:06:09.033Z,69.89
2018-07-07T05:07:09.217Z,69.70
2018-07-07T05:08:09.391Z,69.98
2018-07-07T05:09:09.578Z,70.50
2018-07-07T05:10:09.753Z,70.21
2018-07-07T05:11:09.931Z,71.07
2018-07-07T05:12:10.399Z,70.68
2018-07-07T05:13:10.295Z,69.73
2018-07-07T05:14:10.477Z,69.06
2018-07-07T05:15:10.656Z,68.87
2018-07-07T05:16:10.832Z,68.45
2018-07-07T05:17:11.039Z,68.26
2018-07-07T05:18:11.199Z,67.97
2018-07-07T05:19:11.376Z,68.49
2018-07-07T05:20:11.547Z,68.77
2018-07-07T05:21:11.746Z,68.68
2018-07-07T05:22:11.920Z,68.74
2018-07-07T05:23:12.102Z,69.41
2018-07-07T05:24:12.277Z,68.87
2018-07-07T05:25:12.460Z,69.89
2018-07-07T05:26:12.658Z,70.17
2018-07-07T05:27:12.828Z,69.98
2018-07-07T05:28:13.013Z,69.15
2018-07-07T05:29:13.187Z,69.64
2018-07-07T05:30:13.371Z,68.96
2018-07-07T05:31:13.555Z,68.39
2018-07-07T05:32:13.743Z,68.29
2018-07-07T05:33:13.914Z,68.62
2018-07-07T05:34:14.102Z,67.56
2018-07-07T05:35:14.281Z,67.66
2018-07-07T05:36:14.468Z,67.85
2018-07-07T05:37:14.693Z,67.94
2018-07-07T05:38:14.825Z,67.47
2018-07-07T05:39:15.007Z,67.76
2018-07-07T05:40:15.194Z,67.85
2018-07-07T05:41:15.370Z,67.50
2018-07-07T05:42:15.566Z,67.56
2018-07-07T05:43:15.730Z,67.79
2018-07-07T05:44:15.913Z,67.31
2018-07-07T05:45:16.094Z,67.50
2018-07-07T05:46:16.276Z,67.50
2018-07-07T05:47:16.451Z,67.50
2018-07-07T05:49:16.818Z,67.02
2018-07-07T05:50:16.996Z,66.54
2018-07-07T05:51:17.186Z,66.45
2018-07-07T05:52:17.370Z,66.19
2018-07-07T05:53:17.794Z,65.62
2018-07-07T05:54:17.735Z,64.95
2018-07-07T05:55:17.917Z,64.85
2018-07-07T05:56:18.105Z,64.28
2018-07-07T05:57:18.337Z,64.47
2018-07-07T05:58:18.463Z,64.37
2018-07-07T05:59:18.638Z,64.72
2018-07-07T06:00:18.829Z,64.95
2018-07-07T06:01:18.999Z,64.47
2018-07-07T06:02:19.183Z,65.23
2018-07-07T06:03:19.366Z,65.52
2018-07-07T06:04:19.545Z,64.76
2018-07-07T06:05:19.728Z,64.56
2018-07-07T06:06:19.912Z,65.33
2018-07-07T06:07:20.097Z,65.81
2018-07-07T06:08:20.275Z,66.00
2018-07-07T06:09:20.464Z,66.09
2018-07-07T06:10:20.880Z,65.62
2018-07-07T06:11:20.856Z,65.68
2018-07-07T06:12:20.987Z,66.19
2018-07-07T06:13:21.168Z,65.42
2018-07-07T06:14:21.391Z,65.62
2018-07-07T06:15:21.526Z,65.23
2018-07-07T06:16:21.720Z,64.47
2018-07-07T06:17:21.892Z,65.17
2018-07-07T06:18:22.343Z,64.79
2018-07-07T06:19:22.255Z,64.40
2018-07-07T06:20:22.442Z,63.35
2018-07-07T06:21:22.629Z,63.45
2018-07-07T06:22:22.805Z,63.83
2018-07-07T06:23:22.989Z,63.54
2018-07-07T06:24:23.167Z,63.35
2018-07-07T06:25:23.351Z,63.48
2018-07-07T06:26:23.633Z,63.76
2018-07-07T06:27:23.955Z,63.19
2018-07-07T06:28:23.893Z,62.62
2018-07-07T06:29:24.082Z,62.52
2018-07-07T06:30:24.270Z,62.16
2018-07-07T06:31:24.446Z,61.21
2018-07-07T06:32:24.628Z,61.11
2018-07-07T06:33:24.806Z,60.72
2018-07-07T06:34:24.991Z,61.11
2018-07-07T06:35:25.180Z,61.30
2018-07-07T06:36:25.354Z,60.92
2018-07-07T06:37:25.624Z,60.75
2018-07-07T06:38:25.720Z,60.66
2018-07-07T06:39:25.891Z,59.32
2018-07-07T06:40:26.081Z,59.61
2018-07-07T06:41:26.268Z,59.83
2018-07-07T06:42:26.446Z,59.25
2018-07-07T06:43:26.630Z,58.87
2018-07-07T06:44:27.052Z,58.10
2018-07-07T06:45:26.989Z,58.29
2018-07-07T06:46:27.198Z,58.51
2018-07-07T06:47:27.358Z,57.55
2018-07-07T06:48:27.537Z,57.77
2018-07-07T06:49:27.728Z,57.55
2018-07-07T06:50:27.910Z,57.20
2018-07-07T06:51:28.095Z,57.97
2018-07-07T06:52:28.274Z,56.81
2018-07-07T06:53:28.454Z,56.07
2018-07-07T06:54:28.637Z,55.01
2018-07-07T06:55:28.806Z,54.36
2018-07-07T06:56:28.999Z,54.08
2018-07-07T06:57:29.179Z,54.65
2018-07-07T06:58:29.363Z,53.14
2018-07-07T06:59:29.550Z,53.86
2018-07-07T07:00:29.732Z,54.99
2018-07-07T07:01:29.932Z,55.68
2018-07-07T07:02:30.097Z,56.07
2018-07-07T07:03:30.296Z,54.72
2018-07-07T07:04:30.475Z,54.27
2018-07-07T07:05:30.639Z,53.27
2018-07-07T07:06:30.839Z,51.07
2018-07-07T07:07:31.012Z,50.62
2018-07-07T07:08:31.203Z,49.22
2018-07-07T07:09:31.382Z,48.47
2018-07-07T07:10:31.571Z,47.12
2018-07-07T07:11:31.750Z,46.47
2018-07-07T07:12:31.942Z,46.10
2018-07-07T07:13:32.126Z,44.84
2018-07-07T07:14:32.317Z,43.99
2018-07-07T07:15:32.508Z,44.94
2018-07-07T07:16:32.690Z,45.18
2018-07-07T07:17:32.879Z,47.63
2018-07-07T07:18:33.070Z,48.61
2018-07-07T07:19:33.253Z,46.90
2018-07-07T07:20:33.452Z,46.49
2018-07-07T07:21:33.623Z,46.44
2018-07-07T07:22:33.817Z,44.43
2018-07-07T07:23:34.004Z,42.52
2018-07-07T07:24:34.189Z,42.04
2018-07-07T07:25:34.371Z,41.75
2018-07-07T07:26:34.564Z,40.50
2018-07-07T07:27:34.748Z,40.98
2018-07-07T07:28:34.933Z,40.30
2018-07-07T07:29:35.113Z,39.84
2018-07-07T07:30:35.317Z,38.70
2018-07-07T07:31:35.486Z,38.60
2018-07-07T07:32:35.675Z,37.63
2018-07-07T07:33:35.865Z,36.76
2018-07-07T07:34:36.059Z,36.86
2018-07-07T07:35:36.230Z,36.86
2018-07-07T07:36:36.423Z,36.00
2018-07-07T07:37:36.607Z,35.52
2018-07-07T07:38:36.792Z,34.96
2018-07-07T07:39:36.978Z,34.38
2018-07-07T07:40:37.172Z,33.14
2018-07-07T07:41:37.357Z,33.62
2018-07-07T07:42:37.553Z,33.15
2018-07-07T07:43:37.743Z,32.18
2018-07-07T07:44:37.937Z,32.28
2018-07-07T07:45:38.128Z,31.79
2018-07-07T07:46:38.314Z,31.50
2018-07-07T07:47:38.500Z,31.89
2018-07-07T07:48:38.696Z,31.89
2018-07-07T07:49:38.883Z,31.62
2018-07-07T07:50:39.066Z,31.53
2018-07-07T07:51:39.257Z,30.94
2018-07-07T07:52:39.500Z,29.11
2018-07-07T07:53:39.660Z,27.62
2018-07-07T07:54:39.851Z,27.14
2018-07-07T07:55:40.049Z,26.57
2018-07-07T07:56:40.233Z,26.39
2018-07-07T07:57:40.414Z,28.79
2018-07-07T07:58:40.606Z,30.42
2018-07-07T07:59:40.800Z,30.91
2018-07-07T08:00:40.996Z,30.13
2018-07-07T08:01:41.162Z,30.44
2018-07-07T08:02:41.349Z,30.34
2018-07-07T08:03:41.538Z,30.62
2018-07-07T08:04:41.757Z,30.05
2018-07-07T08:05:41.919Z,29.66
2018-07-07T08:06:42.087Z,29.60
2018-07-07T08:07:42.281Z,28.81
2018-07-07T08:08:42.459Z,28.81
2018-07-07T08:09:42.635Z,28.80
2018-07-07T08:10:42.821Z,29.27
2018-07-07T08:11:43.010Z,29.38
2018-07-07T08:12:43.196Z,28.90
2018-07-07T08:13:43.384Z,28.14
2018-07-07T08:14:43.813Z,28.51
2018-07-07T08:15:43.772Z,28.81
2018-07-07T08:16:43.942Z,29.76
2018-07-07T08:17:44.132Z,30.13
2018-07-07T08:18:44.309Z,30.34
2018-07-07T08:19:44.473Z,29.58
2018-07-07T08:20:44.655Z,30.54
2018-07-07T08:21:44.831Z,31.52
2018-07-07T08:22:45.084Z,31.71
2018-07-07T08:23:45.217Z,30.74
2018-07-07T08:24:45.415Z,31.60
2018-07-07T08:25:45.593Z,31.42
2018-07-07T08:26:45.760Z,30.74
2018-07-07T08:27:45.962Z,29.50
2018-07-07T08:28:46.146Z,28.91
2018-07-07T08:29:46.341Z,28.90
2018-07-07T08:30:46.502Z,29.74
2018-07-07T08:31:46.692Z,30.05
2018-07-07T08:32:46.873Z,30.05
2018-07-07T08:33:47.056Z,30.26
2018-07-07T08:34:47.231Z,29.98
2018-07-07T08:35:47.423Z,29.21
2018-07-07T08:36:47.613Z,29.22
2018-07-07T08:37:47.776Z,29.61
2018-07-07T08:38:47.950Z,29.88
2018-07-07T08:39:48.124Z,30.65
2018-07-07T08:40:48.322Z,31.24
2018-07-07T08:41:48.756Z,32.29
2018-07-07T08:42:48.631Z,33.56
2018-07-07T08:43:48.829Z,33.73
2018-07-07T08:44:48.997Z,33.75
2018-07-07T08:45:49.183Z,32.79
2018-07-07T08:46:49.368Z,31.92
2018-07-07T08:47:49.542Z,31.45
2018-07-07T08:48:49.975Z,30.77
2018-07-07T08:49:49.908Z,31.71
2018-07-07T08:50:50.088Z,32.49
2018-07-07T08:51:50.274Z,32.97
2018-07-07T08:52:50.439Z,32.89
2018-07-07T08:53:50.612Z,32.99
2018-07-07T08:54:50.816Z,33.65
2018-07-07T08:55:51.019Z,34.23
2018-07-07T08:56:51.187Z,35.09
2018-07-07T08:57:51.373Z,34.99
2018-07-07T08:58:51.566Z,34.33
2018-07-07T08:59:51.754Z,34.81
2018-07-07T09:00:51.939Z,34.43
2018-07-07T09:01:52.133Z,34.43
2018-07-07T09:02:52.313Z,34.04
2018-07-07T09:03:52.506Z,33.76
2018-07-07T09:04:52.696Z,33.67
2018-07-07T09:05:52.885Z,32.32
2018-07-07T09:06:53.070Z,32.42
2018-07-07T09:07:53.241Z,33.39
2018-07-07T09:08:53.413Z,33.80
2018-07-07T09:09:53.622Z,34.58
2018-07-07T09:10:53.806Z,35.14
2018-07-07T09:11:53.958Z,34.97
2018-07-07T09:12:54.146Z,34.87
2018-07-07T09:13:54.335Z,35.72
2018-07-07T09:14:54.517Z,35.63
2018-07-07T09:15:54.678Z,35.16
2018-07-07T09:16:54.874Z,35.14
2018-07-07T09:17:55.034Z,35.92
2018-07-07T09:18:55.213Z,35.82
2018-07-07T09:19:55.388Z,35.92
2018-07-07T09:20:55.574Z,36.02
2018-07-07T09:21:55.764Z,35.61
2018-07-07T09:22:55.950Z,35.72
2018-07-07T09:23:56.125Z,35.53
2018-07-07T09:24:56.307Z,34.95
2018-07-07T09:25:56.491Z,33.59
2018-07-07T09:26:56.669Z,33.76
2018-07-07T09:27:56.842Z,33.75
2018-07-07T09:28:57.022Z,36.35
2018-07-07T09:29:57.206Z,36.56
2018-07-07T09:30:57.462Z,36.48
2018-07-07T09:31:57.558Z,35.88
2018-07-07T09:32:57.732Z,35.61
2018-07-07T09:33:57.915Z,35.32
2018-07-07T09:34:58.116Z,34.74
2018-07-07T09:35:58.268Z,35.03
2018-07-07T09:36:58.448Z,34.83
2018-07-07T09:37:58.631Z,34.93
2018-07-07T09:38:58.811Z,34.95
2018-07-07T09:39:58.998Z,34.36
2018-07-07T09:40:59.164Z,33.98
2018-07-07T09:41:59.344Z,34.36
2018-07-07T09:42:59.503Z,34.08
2018-07-07T09:43:59.726Z,33.49
2018-07-07T09:44:59.853Z,33.39
2018-07-07T09:46:00.041Z,33.41
2018-07-07T09:47:00.226Z,33.31
2018-07-07T09:48:00.418Z,32.65
2018-07-07T09:49:00.598Z,33.33
2018-07-07T09:50:00.791Z,32.35
2018-07-07T09:51:00.963Z,31.87
2018-07-07T09:52:01.161Z,32.07
2018-07-07T09:53:01.360Z,31.87
2018-07-07T09:54:01.522Z,31.85
2018-07-07T09:55:01.693Z,32.73
2018-07-07T09:56:01.901Z,32.26
2018-07-07T09:57:02.336Z,32.44
2018-07-07T09:58:02.268Z,32.32
2018-07-07T09:59:02.486Z,32.42
2018-07-07T10:00:02.716Z,31.84
2018-07-07T10:01:02.899Z,31.94
2018-07-07T10:02:03.104Z,31.65
2018-07-07T10:03:03.291Z,31.94
2018-07-07T10:04:03.478Z,31.45
2018-07-07T10:05:03.685Z,31.57
2018-07-07T10:06:03.855Z,31.47
2018-07-07T10:07:04.023Z,32.34
2018-07-07T10:08:04.196Z,32.23
2018-07-07T10:09:04.370Z,31.65
2018-07-07T10:10:04.555Z,30.59
2018-07-07T10:11:04.729Z,29.91
2018-07-07T10:12:04.916Z,29.54
2018-07-07T10:13:05.081Z,30.30
2018-07-07T10:14:05.254Z,30.19
2018-07-07T10:15:05.438Z,31.34
2018-07-07T10:16:05.603Z,30.57
2018-07-07T10:17:05.791Z,30.48
2018-07-07T10:18:05.980Z,30.85
2018-07-07T10:19:06.128Z,30.95
2018-07-07T10:20:06.326Z,30.84
2018-07-07T10:21:06.506Z,30.97
2018-07-07T10:22:06.692Z,30.77
2018-07-07T10:23:06.869Z,31.35
2018-07-07T10:24:07.044Z,30.79
2018-07-07T10:25:07.224Z,29.15
2018-07-07T10:26:07.408Z,29.05
2018-07-07T10:27:07.593Z,28.75
2018-07-07T10:28:07.784Z,30.40
2018-07-07T10:29:07.964Z,30.98
2018-07-07T10:30:08.155Z,30.71
2018-07-07T10:31:08.368Z,30.90
2018-07-07T10:32:08.519Z,30.72
2018-07-07T10:33:08.685Z,31.38
2018-07-07T10:34:08.867Z,31.48
2018-07-07T10:35:09.042Z,31.76
2018-07-07T10:36:09.228Z,31.95
2018-07-07T10:37:09.409Z,32.26
2018-07-07T10:38:09.625Z,31.38
2018-07-07T10:39:09.774Z,30.22
2018-07-07T10:40:09.958Z,29.74
2018-07-07T10:41:10.159Z,30.50
2018-07-07T10:42:10.332Z,30.30
2018-07-07T10:43:10.515Z,29.72
2018-07-07T10:44:10.701Z,29.91
2018-07-07T10:45:10.900Z,30.30
2018-07-07T10:46:11.137Z,30.02
2018-07-07T10:47:11.254Z,29.83
2018-07-07T10:48:11.433Z,29.14
2018-07-07T10:49:11.625Z,30.40
2018-07-07T10:50:11.852Z,30.59
2018-07-07T10:51:12.024Z,30.40
2018-07-07T10:52:12.183Z,31.27
2018-07-07T10:53:12.353Z,31.45
2018-07-07T10:54:12.555Z,31.47
2018-07-07T10:55:12.719Z,30.69
2018-07-07T10:56:12.872Z,30.71
2018-07-07T10:57:13.127Z,30.61
2018-07-07T10:58:13.332Z,29.93
2018-07-07T10:59:13.541Z,30.22
2018-07-07T11:00:13.736Z,30.88
2018-07-07T11:01:13.912Z,31.37
2018-07-07T11:02:14.093Z,30.40
2018-07-07T11:03:14.280Z,29.72
2018-07-07T11:04:14.599Z,29.83
2018-07-07T11:05:14.644Z,29.83
2018-07-07T11:06:14.824Z,29.52
2018-07-07T11:07:14.997Z,30.50
2018-07-07T11:08:15.204Z,30.19
2018-07-07T11:09:15.349Z,30.48
2018-07-07T11:10:15.528Z,30.88
2018-07-07T11:11:15.717Z,30.50
2018-07-07T11:12:15.905Z,30.32
2018-07-07T11:13:16.088Z,29.74
2018-07-07T11:14:16.271Z,29.15
2018-07-07T11:15:16.443Z,29.04
2018-07-07T11:16:16.859Z,30.40
2018-07-07T11:17:16.801Z,30.30
2018-07-07T11:18:16.984Z,29.83
2018-07-07T11:19:17.173Z,28.96
2018-07-07T11:20:17.353Z,29.25
2018-07-07T11:21:17.528Z,28.76
2018-07-07T11:22:17.720Z,28.78
2018-07-07T11:23:17.901Z,28.58
2018-07-07T11:24:18.058Z,28.96
2018-07-07T11:25:18.235Z,27.32
2018-07-07T11:26:18.412Z,26.44
2018-07-07T11:27:18.602Z,26.54
2018-07-07T11:28:18.771Z,26.44
2018-07-07T11:29:18.979Z,27.32
2018-07-07T11:30:19.152Z,28.49
2018-07-07T11:31:19.336Z,28.88
2018-07-07T11:32:19.519Z,28.97
2018-07-07T11:33:19.696Z,29.15
2018-07-07T11:34:19.881Z,29.46
2018-07-07T11:35:20.069Z,28.88
2018-07-07T11:36:20.323Z,29.15
2018-07-07T11:37:20.426Z,29.25
2018-07-07T11:38:20.607Z,29.05
2018-07-07T11:39:20.789Z,28.49
2018-07-07T11:40:20.966Z,28.88
2018-07-07T11:41:21.145Z,28.58
2018-07-07T11:42:21.356Z,28.78
2018-07-07T11:43:21.513Z,28.78
2018-07-07T11:44:21.699Z,28.97
2018-07-07T11:45:21.872Z,28.88
2018-07-07T11:46:22.038Z,28.78
2018-07-07T11:47:22.251Z,28.76
2018-07-07T11:48:22.428Z,29.15
2018-07-07T11:49:22.620Z,28.68
2018-07-07T11:50:22.879Z,28.49
2018-07-07T11:51:22.969Z,27.90
2018-07-07T11:52:23.163Z,27.80
2018-07-07T11:53:23.389Z,28.50
2018-07-07T11:54:23.497Z,29.26
2018-07-07T11:55:23.690Z,29.66
2018-07-07T11:56:24.360Z,29.38
2018-07-07T11:57:24.069Z,29.85
2018-07-07T11:58:24.249Z,29.65
2018-07-07T11:59:24.420Z,30.02
2018-07-07T12:00:24.678Z,30.51
2018-07-07T12:01:24.859Z,31.10
2018-07-07T12:02:25.044Z,30.98
2018-07-07T12:03:25.207Z,31.38
2018-07-07T12:04:25.473Z,30.51
2018-07-07T12:05:25.568Z,30.12
2018-07-07T12:06:25.771Z,30.59
2018-07-07T12:07:25.937Z,30.59
2018-07-07T12:08:26.232Z,30.59
2018-07-07T12:09:26.313Z,31.08
2018-07-07T12:10:26.539Z,31.66
2018-07-07T12:11:26.746Z,31.77
2018-07-07T12:12:26.871Z,31.87
2018-07-07T12:13:27.046Z,31.85
2018-07-07T12:14:27.230Z,32.05
2018-07-07T12:15:27.415Z,31.66
2018-07-07T12:16:27.591Z,31.66
2018-07-07T12:17:27.812Z,31.48
2018-07-07T12:18:27.952Z,30.71
2018-07-07T12:19:28.127Z,30.43
2018-07-07T12:20:28.328Z,31.01
2018-07-07T12:21:28.729Z,30.52
2018-07-07T12:22:28.680Z,30.52
2018-07-07T12:23:28.854Z,31.38
2018-07-07T12:24:29.046Z,31.60
2018-07-07T12:25:29.199Z,31.40
2018-07-07T12:26:29.410Z,30.82
2018-07-07T12:27:29.578Z,30.62
2018-07-07T12:28:29.744Z,30.62
2018-07-07T12:29:29.930Z,30.24
2018-07-07T12:30:30.105Z,29.65
2018-07-07T12:31:30.285Z,29.66
2018-07-07T12:32:30.463Z,30.24
2018-07-07T12:33:30.652Z,30.33
2018-07-07T12:34:30.831Z,30.62
2018-07-07T12:35:31.002Z,30.22
2018-07-07T12:36:31.199Z,30.87
2018-07-07T12:37:31.358Z,32.42
2018-07-07T12:38:31.555Z,32.04
2018-07-07T12:39:31.754Z,31.92
2018-07-07T12:40:31.944Z,31.84
2018-07-07T12:41:32.126Z,31.57
2018-07-07T12:42:32.302Z,30.71
2018-07-07T12:43:32.504Z,30.61
2018-07-07T12:44:32.670Z,30.12
2018-07-07T12:45:32.858Z,30.32
2018-07-07T12:46:33.040Z,29.83
2018-07-07T12:47:33.220Z,30.02
2018-07-07T12:48:33.417Z,29.83
2018-07-07T12:49:33.577Z,29.75
2018-07-07T12:50:33.762Z,28.78
2018-07-07T12:51:33.957Z,29.26
2018-07-07T12:52:34.144Z,29.47
2018-07-07T12:53:34.318Z,29.75
2018-07-07T12:54:34.487Z,29.65
2018-07-07T12:55:34.661Z,30.52
2018-07-07T12:56:34.851Z,30.04
2018-07-07T12:57:35.007Z,29.83
2018-07-07T12:58:35.197Z,30.43